createdAt,value
2019-02-07T00:01:55.601Z,6.87
2019-02-07T00:04:25.924Z,7.00
2019-02-07T00:06:55.688Z,6.93
2019-02-07T00:09:25.508Z,7.93
2019-02-07T00:11:55.334Z,7.50
2019-02-07T00:14:24.940Z,7.03
2019-02-07T00:16:54.478Z,8.30
2019-02-07T00:19:24.152Z,7.70
2019-02-07T00:21:53.776Z,8.10
2019-02-07T00:24:23.917Z,6.67
2019-02-07T00:26:54.144Z,7.00
2019-02-07T00:29:23.890Z,7.13
2019-02-07T00:31:53.392Z,6.77
2019-02-07T00:34:22.884Z,6.90
2019-02-07T00:36:52.633Z,6.97
2019-02-07T00:39:22.405Z,6.20
2019-02-07T00:41:52.077Z,7.23
2019-02-07T00:44:22.044Z,7.75
2019-02-07T00:46:52.231Z,6.70
2019-02-07T00:49:22.533Z,7.62
2019-02-07T00:51:52.038Z,6.10
2019-02-07T00:54:22.146Z,6.93
2019-02-07T00:56:52.362Z,5.70
2019-02-07T00:59:22.259Z,5.77
2019-02-07T01:01:52.009Z,6.17
2019-02-07T01:04:22.019Z,5.57
2019-02-07T01:06:52.099Z,6.30
2019-02-07T01:09:22.681Z,6.53
2019-02-07T01:11:52.504Z,5.80
2019-02-07T01:14:22.296Z,6.10
2019-02-07T01:16:52.258Z,6.25
2019-02-07T01:19:22.098Z,6.42
2019-02-07T01:21:52.494Z,5.80
2019-02-07T01:24:22.443Z,6.27
2019-02-07T01:26:52.072Z,7.03
2019-02-07T01:29:22.248Z,6.35
2019-02-07T01:31:52.303Z,6.50
2019-02-07T01:34:22.635Z,7.30
2019-02-07T01:36:52.831Z,7.47
2019-02-07T01:39:22.639Z,7.17
2019-02-07T01:41:52.161Z,6.80
2019-02-07T01:44:22.055Z,7.65
2019-02-07T01:46:52.307Z,6.97
2019-02-07T01:49:22.324Z,7.80
2019-02-07T01:51:53.136Z,7.40
2019-02-07T01:54:22.770Z,7.40
2019-02-07T01:56:52.515Z,7.90
2019-02-07T01:59:22.331Z,7.27
2019-02-07T02:01:52.489Z,7.62
2019-02-07T02:04:22.293Z,7.70
2019-02-07T02:06:52.342Z,7.30
2019-02-07T02:09:22.622Z,7.70
2019-02-07T02:11:52.385Z,7.40
2019-02-07T02:14:22.272Z,7.75
2019-02-07T02:16:52.148Z,7.22
2019-02-07T02:19:22.174Z,7.95
2019-02-07T02:21:52.264Z,7.58
2019-02-07T02:24:22.522Z,7.80
2019-02-07T02:26:52.632Z,7.53
2019-02-07T02:29:22.168Z,7.33
2019-02-07T02:31:52.182Z,6.53
2019-02-07T02:34:22.553Z,6.85
2019-02-07T02:36:52.392Z,6.93
2019-02-07T02:39:22.430Z,6.05
2019-02-07T02:41:52.233Z,5.92
2019-02-07T02:44:22.393Z,7.00
2019-02-07T02:46:52.274Z,6.03
2019-02-07T02:49:22.302Z,6.70
2019-02-07T02:51:52.188Z,6.62
2019-02-07T02:54:50.383Z,5.72
2019-02-07T02:57:20.913Z,6.10
2019-02-07T02:59:50.741Z,5.17
2019-02-07T03:02:33.560Z,5.13
2019-02-07T03:05:40.536Z,5.93
2019-02-07T03:08:41.371Z,5.58
2019-02-07T03:11:39.345Z,4.87
2019-02-07T03:14:34.593Z,5.78
2019-02-07T03:17:24.545Z,5.63
2019-02-07T03:20:16.261Z,5.57
2019-02-07T03:22:59.805Z,5.60
2019-02-07T03:25:48.372Z,5.17
2019-02-07T03:28:52.151Z,5.40
2019-02-07T03:31:40.253Z,4.73
2019-02-07T03:34:28.961Z,5.20
2019-02-07T03:37:08.325Z,4.80
2019-02-07T03:39:57.160Z,4.97
2019-02-07T03:42:57.868Z,5.33
2019-02-07T03:45:42.707Z,4.73
2019-02-07T03:48:28.557Z,3.90
2019-02-07T03:51:21.055Z,4.60
2019-02-07T03:54:16.102Z,4.53
2019-02-07T03:57:11.318Z,4.43
2019-02-07T04:00:09.022Z,4.53
2019-02-07T04:02:49.448Z,4.37
2019-02-07T04:05:38.692Z,5.00
2019-02-07T04:08:19.518Z,4.53
2019-02-07T04:11:07.186Z,4.20
2019-02-07T04:13:54.795Z,4.83
2019-02-07T04:16:47.267Z,3.50
2019-02-07T04:19:38.992Z,4.73
2019-02-07T04:22:26.689Z,4.97
2019-02-07T04:25:21.970Z,4.40
2019-02-07T04:28:10.003Z,4.43
2019-02-07T04:30:47.866Z,4.97
2019-02-07T04:33:45.653Z,4.20
2019-02-07T04:36:35.636Z,4.43
2019-02-07T04:39:36.545Z,4.80
2019-02-07T04:42:20.202Z,4.43
2019-02-07T04:45:10.498Z,4.63
2019-02-07T04:47:58.194Z,4.50
2019-02-07T04:50:53.896Z,4.27
2019-02-07T04:53:34.229Z,4.78
2019-02-07T04:56:23.289Z,4.87
2019-02-07T04:59:12.271Z,4.77
2019-02-07T05:01:52.629Z,4.63
2019-02-07T05:04:47.839Z,4.08
2019-02-07T05:07:40.563Z,5.45
2019-02-07T05:10:26.290Z,4.25
2019-02-07T05:13:17.263Z,4.90
2019-02-07T05:16:20.865Z,4.33
2019-02-07T05:19:09.460Z,4.17
2019-02-07T05:21:58.645Z,4.10
2019-02-07T05:24:37.429Z,4.97
2019-02-07T05:27:17.808Z,5.12
2019-02-07T05:29:54.517Z,5.80
2019-02-07T05:33:01.442Z,5.13
2019-02-07T05:35:52.120Z,5.73
2019-02-07T05:38:43.714Z,5.55
2019-02-07T05:41:35.314Z,5.83
2019-02-07T05:44:24.113Z,4.83
2019-02-07T05:47:07.079Z,5.87
2019-02-07T05:50:11.104Z,4.37
2019-02-07T05:52:58.596Z,4.83
2019-02-07T05:55:40.775Z,5.53
2019-02-07T05:58:19.865Z,4.80
2019-02-07T06:01:03.207Z,4.77
2019-02-07T06:03:40.170Z,5.00
2019-02-07T06:06:35.218Z,4.53
2019-02-07T06:09:17.089Z,4.43
2019-02-07T06:12:04.376Z,4.23
2019-02-07T06:14:50.802Z,4.40
2019-02-07T06:17:42.663Z,4.53
2019-02-07T06:20:21.442Z,5.00
2019-02-07T06:23:08.901Z,4.27
2019-02-07T06:25:55.902Z,4.77
2019-02-07T06:28:46.503Z,4.67
2019-02-07T06:31:41.320Z,4.33
2019-02-07T06:34:29.502Z,4.37
2019-02-07T06:37:07.424Z,4.90
2019-02-07T06:40:14.581Z,4.63
2019-02-07T06:43:00.571Z,4.40
2019-02-07T06:45:35.786Z,5.30
2019-02-07T06:48:21.394Z,5.57
2019-02-07T06:50:56.996Z,4.83
2019-02-07T06:53:57.842Z,6.03
2019-02-07T06:56:45.419Z,6.00
2019-02-07T06:59:37.436Z,5.03
2019-02-07T07:02:27.021Z,4.87
2019-02-07T07:05:06.870Z,5.00
2019-02-07T07:08:02.421Z,5.20
2019-02-07T07:10:47.099Z,5.03
2019-02-07T07:13:47.861Z,4.30
2019-02-07T07:16:27.219Z,5.27
2019-02-07T07:19:10.378Z,4.53
2019-02-07T07:21:53.594Z,4.70
2019-02-07T07:24:33.767Z,4.53
2019-02-07T07:27:29.243Z,4.47
2019-02-07T07:30:07.079Z,4.65
2019-02-07T07:32:59.587Z,5.08
2019-02-07T07:36:03.603Z,5.20
2019-02-07T07:39:00.550Z,4.60
2019-02-07T07:41:49.465Z,4.03
2019-02-07T07:44:36.831Z,4.17
2019-02-07T07:47:43.605Z,4.57
2019-02-07T07:50:39.070Z,4.23
2019-02-07T07:53:21.758Z,3.77
2019-02-07T07:56:10.311Z,3.77
2019-02-07T07:58:57.936Z,3.67
2019-02-07T08:01:46.490Z,3.90
2019-02-07T08:04:36.030Z,3.50
2019-02-07T08:07:34.152Z,3.87
2019-02-07T08:10:20.140Z,3.55
2019-02-07T08:13:01.649Z,4.00
2019-02-07T08:15:49.323Z,3.30
2019-02-07T08:18:36.476Z,3.53
2019-02-07T08:21:24.027Z,3.30
2019-02-07T08:24:11.289Z,3.17
2019-02-07T08:26:56.616Z,3.83
2019-02-07T08:29:46.900Z,3.87
2019-02-07T08:32:44.775Z,3.37
2019-02-07T08:35:48.943Z,3.67
2019-02-07T08:38:37.014Z,4.33
2019-02-07T08:41:24.403Z,4.75
2019-02-07T08:44:22.069Z,4.57
2019-02-07T08:47:14.461Z,3.97
2019-02-07T08:50:18.398Z,5.13
2019-02-07T08:53:09.763Z,5.12
2019-02-07T08:55:56.938Z,5.00
2019-02-07T08:58:45.215Z,5.00
2019-02-07T09:01:32.106Z,5.53
2019-02-07T09:04:26.725Z,5.23
2019-02-07T09:07:14.496Z,5.03
2019-02-07T09:10:02.034Z,5.00
2019-02-07T09:12:41.373Z,5.73
2019-02-07T09:15:32.532Z,5.60
2019-02-07T09:18:28.414Z,5.60
2019-02-07T09:21:23.796Z,6.10
2019-02-07T09:24:04.394Z,6.47
2019-02-07T09:26:51.619Z,6.50
2019-02-07T09:29:38.612Z,6.40
2019-02-07T09:32:19.243Z,7.63
2019-02-07T09:35:06.551Z,7.23
2019-02-07T09:37:53.672Z,7.10
2019-02-07T09:40:40.857Z,6.87
2019-02-07T09:43:25.474Z,7.63
2019-02-07T09:46:20.085Z,7.35
2019-02-07T09:49:02.873Z,8.27
2019-02-07T09:51:40.847Z,7.60
2019-02-07T09:54:28.125Z,7.40
2019-02-07T09:57:16.988Z,8.30
2019-02-07T10:00:11.754Z,8.30
2019-02-07T10:03:03.074Z,7.83
2019-02-07T10:05:46.306Z,8.50
2019-02-07T10:08:40.870Z,8.33
2019-02-07T10:11:21.883Z,9.13
2019-02-07T10:14:09.158Z,8.20
2019-02-07T10:16:51.873Z,8.70
2019-02-07T10:19:40.685Z,10.20
2019-02-07T10:22:27.786Z,9.70
2019-02-07T10:25:22.616Z,9.78
2019-02-07T10:28:23.654Z,10.03
2019-02-07T10:31:03.192Z,10.23
2019-02-07T10:33:50.348Z,9.90
2019-02-07T10:36:38.388Z,10.03
2019-02-07T10:39:35.783Z,10.53
2019-02-07T10:42:18.014Z,12.03
2019-02-07T10:45:07.268Z,12.25
2019-02-07T10:48:03.406Z,11.37
2019-02-07T10:50:52.988Z,11.13
2019-02-07T10:53:38.477Z,10.60
2019-02-07T10:56:33.235Z,10.50
2019-02-07T10:59:20.968Z,11.63
2019-02-07T11:02:09.689Z,11.90
2019-02-07T11:05:07.368Z,11.22
2019-02-07T11:07:54.889Z,12.97
2019-02-07T11:10:42.398Z,11.87
2019-02-07T11:13:43.075Z,10.70
2019-02-07T11:16:30.685Z,12.80
2019-02-07T11:19:21.498Z,10.80
2019-02-07T11:22:24.501Z,12.43
2019-02-07T11:25:12.022Z,12.60
2019-02-07T11:28:10.922Z,12.70
2019-02-07T11:31:03.137Z,11.87
2019-02-07T11:34:02.044Z,12.70
2019-02-07T11:36:53.854Z,11.77
2019-02-07T11:39:31.478Z,12.57
2019-02-07T11:42:18.436Z,12.87
2019-02-07T11:45:06.956Z,12.57
2019-02-07T11:47:46.383Z,11.93
2019-02-07T11:50:34.308Z,13.13
2019-02-07T11:53:14.143Z,12.20
2019-02-07T11:56:06.036Z,12.37
2019-02-07T11:58:54.524Z,12.37
2019-02-07T12:01:42.309Z,14.30
2019-02-07T12:04:43.718Z,14.00
2019-02-07T12:07:31.166Z,15.13
2019-02-07T12:10:27.574Z,14.10
2019-02-07T12:13:15.468Z,13.45
2019-02-07T12:16:01.471Z,14.30
2019-02-07T12:18:45.844Z,11.80
2019-02-07T12:21:46.600Z,13.77
2019-02-07T12:24:33.937Z,13.20
2019-02-07T12:27:17.751Z,12.33
2019-02-07T12:30:05.043Z,14.57
2019-02-07T12:33:04.813Z,14.47
2019-02-07T12:35:59.500Z,16.57
2019-02-07T12:38:42.821Z,15.07
2019-02-07T12:41:30.418Z,16.20
2019-02-07T12:44:09.361Z,15.77
2019-02-07T12:46:56.617Z,16.90
2019-02-07T12:49:38.038Z,16.10
2019-02-07T12:52:19.946Z,15.50
2019-02-07T12:55:28.622Z,12.10
2019-02-07T12:58:16.189Z,14.00
2019-02-07T13:01:04.432Z,13.70
2019-02-07T13:03:54.536Z,13.57
2019-02-07T13:06:42.382Z,14.38
2019-02-07T13:09:34.182Z,16.60
2019-02-07T13:12:22.532Z,15.23
2019-02-07T13:15:17.249Z,16.57
2019-02-07T13:18:05.493Z,17.43
2019-02-07T13:20:53.180Z,16.67
2019-02-07T13:23:40.542Z,18.73
2019-02-07T13:26:22.139Z,19.63
2019-02-07T13:29:13.562Z,15.97
2019-02-07T13:32:00.772Z,16.27
2019-02-07T13:34:51.733Z,16.97
2019-02-07T13:37:30.273Z,16.60
2019-02-07T13:40:20.017Z,15.05
2019-02-07T13:43:02.088Z,16.60
2019-02-07T13:45:49.729Z,18.10
2019-02-07T13:48:56.857Z,16.20
2019-02-07T13:51:41.426Z,15.23
2019-02-07T13:54:21.608Z,13.17
2019-02-07T13:57:08.618Z,14.47
2019-02-07T14:00:06.492Z,14.68
2019-02-07T14:02:54.229Z,12.20
2019-02-07T14:05:38.615Z,12.45
2019-02-07T14:08:14.905Z,13.18
2019-02-07T14:11:05.639Z,13.40
2019-02-07T14:14:00.319Z,12.20
2019-02-07T14:16:41.960Z,13.43
2019-02-07T14:19:24.014Z,14.43
2019-02-07T14:22:17.457Z,14.90
2019-02-07T14:25:04.744Z,15.20
2019-02-07T14:27:45.961Z,14.63
2019-02-07T14:30:33.154Z,15.90
2019-02-07T14:33:16.871Z,14.80
2019-02-07T14:36:08.649Z,14.33
2019-02-07T14:39:00.196Z,13.60
2019-02-07T14:41:38.690Z,13.00
2019-02-07T14:44:26.030Z,13.30
2019-02-07T14:46:55.805Z,12.00
2019-02-07T14:49:25.698Z,13.07
2019-02-07T14:51:56.672Z,12.00
2019-02-07T14:54:26.198Z,12.17
2019-02-07T14:56:55.984Z,12.83
2019-02-07T14:59:26.208Z,13.62
2019-02-07T15:01:55.691Z,12.67
2019-02-07T15:04:25.536Z,12.33
2019-02-07T15:06:55.551Z,14.07
2019-02-07T15:09:25.362Z,13.73
2019-02-07T15:11:54.909Z,13.67
2019-02-07T15:14:24.687Z,13.53
2019-02-07T15:16:55.163Z,14.00
2019-02-07T15:19:25.379Z,13.03
2019-02-07T15:21:54.934Z,13.20
2019-02-07T15:24:24.863Z,13.08
2019-02-07T15:26:55.603Z,14.05
2019-02-07T15:29:25.509Z,13.25
2019-02-07T15:31:55.286Z,13.18
2019-02-07T15:34:25.479Z,12.87
2019-02-07T15:36:55.569Z,14.10
2019-02-07T15:39:25.397Z,14.03
2019-02-07T15:41:55.349Z,15.05
2019-02-07T15:44:25.406Z,15.15
2019-02-07T15:46:55.364Z,14.43
2019-02-07T15:49:25.676Z,16.20
2019-02-07T15:51:55.323Z,14.93
2019-02-07T15:54:25.613Z,15.32
2019-02-07T15:56:55.295Z,16.60
2019-02-07T15:59:30.137Z,15.88
2019-02-07T16:02:16.850Z,15.20
2019-02-07T16:04:47.258Z,14.47
2019-02-07T16:07:17.358Z,14.27
2019-02-07T16:09:47.307Z,16.13
2019-02-07T16:12:17.313Z,15.70
2019-02-07T16:14:47.107Z,13.10
2019-02-07T16:17:17.221Z,13.50
2019-02-07T16:19:46.983Z,14.00
2019-02-07T16:22:16.523Z,13.23
2019-02-07T16:24:46.187Z,12.73
2019-02-07T16:27:15.977Z,13.83
2019-02-07T16:29:45.556Z,13.67
2019-02-07T16:32:15.267Z,13.97
2019-02-07T16:34:44.883Z,14.97
2019-02-07T16:37:14.611Z,15.20
2019-02-07T16:39:44.221Z,16.27
2019-02-07T16:42:13.785Z,15.47
2019-02-07T16:44:43.649Z,15.20
2019-02-07T16:47:13.133Z,15.50
2019-02-07T16:49:42.879Z,14.50
2019-02-07T16:52:12.758Z,14.93
2019-02-07T16:54:42.368Z,15.03
2019-02-07T16:57:12.178Z,14.50
2019-02-07T16:59:41.979Z,14.77
2019-02-07T17:02:11.579Z,12.63
2019-02-07T17:04:41.416Z,13.63
2019-02-07T17:07:11.015Z,12.67
2019-02-07T17:09:41.978Z,11.73
2019-02-07T17:12:11.963Z,12.50
2019-02-07T17:14:42.509Z,12.37
2019-02-07T17:17:12.085Z,13.00
2019-02-07T17:19:42.024Z,11.00
2019-02-07T17:22:11.539Z,12.17
2019-02-07T17:24:41.361Z,12.23
2019-02-07T17:27:10.938Z,13.13
2019-02-07T17:29:41.028Z,12.53
2019-02-07T17:32:11.160Z,11.73
2019-02-07T17:34:40.999Z,12.07
2019-02-07T17:37:10.568Z,11.83
2019-02-07T17:39:40.630Z,12.37
2019-02-07T17:42:10.746Z,10.77
2019-02-07T17:44:40.494Z,12.53
2019-02-07T17:47:11.041Z,11.30
2019-02-07T17:49:40.577Z,11.10
2019-02-07T17:52:10.169Z,11.22
2019-02-07T17:54:40.074Z,10.53
2019-02-07T17:57:09.812Z,9.77
2019-02-07T17:59:39.692Z,10.67
2019-02-07T18:02:12.324Z,10.20
2019-02-07T18:04:44.086Z,9.70
2019-02-07T18:07:13.436Z,10.67
2019-02-07T18:09:44.382Z,10.40
2019-02-07T18:12:14.125Z,10.33
2019-02-07T18:14:44.047Z,10.97
2019-02-07T18:17:13.634Z,10.60
2019-02-07T18:19:43.523Z,11.27
2019-02-07T18:22:13.382Z,10.87
2019-02-07T18:24:43.138Z,10.80
2019-02-07T18:27:12.987Z,10.17
2019-02-07T18:29:42.594Z,10.55
2019-02-07T18:32:12.109Z,10.33
2019-02-07T18:34:41.792Z,11.17
2019-02-07T18:37:11.431Z,11.20
2019-02-07T18:39:41.563Z,11.08
2019-02-07T18:42:11.057Z,12.90
2019-02-07T18:44:40.664Z,11.50
2019-02-07T18:47:10.435Z,12.70
2019-02-07T18:49:40.005Z,12.47
2019-02-07T18:52:10.034Z,13.23
2019-02-07T18:54:40.071Z,12.60
2019-02-07T18:57:10.647Z,13.30
2019-02-07T18:59:40.398Z,13.65
2019-02-07T19:02:10.159Z,16.07
2019-02-07T19:04:39.739Z,13.60
2019-02-07T19:07:09.851Z,14.27
2019-02-07T19:09:39.405Z,14.60
2019-02-07T19:12:09.025Z,12.37
2019-02-07T19:14:39.257Z,14.13
2019-02-07T19:17:09.128Z,15.08
2019-02-07T19:19:39.000Z,14.33
2019-02-07T19:22:08.525Z,14.57
2019-02-07T19:24:38.357Z,13.23
2019-02-07T19:27:09.194Z,13.43
2019-02-07T19:29:38.935Z,13.48
2019-02-07T19:32:09.166Z,13.13
2019-02-07T19:34:38.960Z,13.37
2019-02-07T19:37:08.646Z,13.77
2019-02-07T19:39:38.334Z,13.00
2019-02-07T19:42:07.832Z,14.53
2019-02-07T19:44:37.898Z,13.53
2019-02-07T19:47:07.885Z,14.50
2019-02-07T19:49:37.503Z,12.27
2019-02-07T19:52:08.451Z,12.53
2019-02-07T19:54:38.167Z,12.90
2019-02-07T19:57:07.676Z,13.93
2019-02-07T19:59:37.472Z,13.03
2019-02-07T20:02:07.678Z,13.27
2019-02-07T20:04:37.559Z,12.67
2019-02-07T20:07:07.471Z,14.30
2019-02-07T20:09:37.104Z,13.13
2019-02-07T20:12:06.905Z,14.67
2019-02-07T20:14:36.463Z,13.70
2019-02-07T20:17:05.977Z,15.37
2019-02-07T20:19:35.558Z,15.03
2019-02-07T20:22:05.281Z,14.90
2019-02-07T20:24:45.406Z,15.13
2019-02-07T20:27:06.201Z,12.90
2019-02-07T20:29:36.237Z,15.70
2019-02-07T20:32:05.836Z,15.43
2019-02-07T20:34:35.641Z,12.43
2019-02-07T20:37:05.282Z,13.13
2019-02-07T20:39:34.991Z,12.63
2019-02-07T20:42:04.831Z,13.47
2019-02-07T20:44:34.801Z,14.63
2019-02-07T20:47:07.468Z,14.77
2019-02-07T20:49:37.395Z,14.77
2019-02-07T20:52:07.438Z,14.10
2019-02-07T20:54:38.602Z,13.77
2019-02-07T20:57:08.268Z,14.80
2019-02-07T20:59:38.270Z,12.80
2019-02-07T21:02:08.143Z,13.97
2019-02-07T21:04:39.162Z,12.97
2019-02-07T21:07:08.856Z,12.90
2019-02-07T21:09:39.564Z,12.80
2019-02-07T21:12:09.417Z,12.60
2019-02-07T21:14:40.168Z,11.70
2019-02-07T21:17:10.177Z,10.87
2019-02-07T21:19:39.961Z,11.20
2019-02-07T21:22:09.518Z,11.53
2019-02-07T21:24:39.613Z,10.20
2019-02-07T21:27:09.198Z,10.53
2019-02-07T21:29:39.224Z,10.13
2019-02-07T21:32:10.680Z,9.20
2019-02-07T21:34:40.635Z,9.50
2019-02-07T21:37:10.646Z,9.00
2019-02-07T21:39:40.447Z,7.87
2019-02-07T21:42:10.733Z,8.07
2019-02-07T21:44:41.025Z,7.37
2019-02-07T21:47:10.529Z,7.97
2019-02-07T21:49:41.067Z,7.17
2019-02-07T21:52:10.557Z,8.03
2019-02-07T21:54:40.177Z,7.22
2019-02-07T21:57:10.126Z,8.03
2019-02-07T21:59:39.910Z,7.87
2019-02-07T22:02:09.614Z,8.67
2019-02-07T22:04:39.493Z,8.07
2019-02-07T22:07:09.075Z,7.97
2019-02-07T22:09:39.176Z,9.10
2019-02-07T22:12:08.699Z,8.67
2019-02-07T22:14:39.240Z,9.80
2019-02-07T22:17:09.421Z,10.10
2019-02-07T22:19:39.158Z,9.47
2019-02-07T22:22:08.645Z,8.38
2019-02-07T22:24:38.160Z,9.40
2019-02-07T22:27:07.749Z,9.88
2019-02-07T22:29:37.394Z,9.05
2019-02-07T22:32:07.378Z,7.87
2019-02-07T22:34:36.940Z,8.57
2019-02-07T22:37:06.551Z,7.63
2019-02-07T22:39:36.197Z,8.93
2019-02-07T22:42:06.088Z,8.90
2019-02-07T22:44:35.663Z,8.13
2019-02-07T22:47:05.462Z,8.03
2019-02-07T22:49:35.230Z,8.97
2019-02-07T22:52:05.216Z,7.37
2019-02-07T22:54:34.981Z,8.35
2019-02-07T22:57:04.779Z,7.77
2019-02-07T22:59:34.270Z,8.17
2019-02-07T23:02:05.982Z,8.57
2019-02-07T23:04:35.719Z,7.47
2019-02-07T23:07:05.606Z,8.40
2019-02-07T23:09:35.806Z,8.53
2019-02-07T23:12:05.967Z,7.87
2019-02-07T23:14:35.751Z,7.40
2019-02-07T23:17:05.564Z,8.10
2019-02-07T23:19:35.284Z,7.67
2019-02-07T23:22:05.551Z,7.20
2019-02-07T23:24:35.552Z,7.33
2019-02-07T23:27:05.730Z,7.37
2019-02-07T23:29:35.454Z,7.67
2019-02-07T23:32:05.239Z,6.53
2019-02-07T23:34:35.001Z,7.53
2019-02-07T23:37:04.933Z,5.83
2019-02-07T23:39:34.671Z,7.03
2019-02-07T23:42:04.264Z,6.47
2019-02-07T23:44:33.785Z,7.20
2019-02-07T23:47:03.319Z,7.37
2019-02-07T23:49:32.810Z,6.37
2019-02-07T23:52:02.325Z,5.43
2019-02-07T23:54:32.122Z,6.50
2019-02-07T23:57:01.873Z,6.13
2019-02-07T23:59:31.385Z,5.93
